sensor_id;sensor_type;location;lat;lon;timestamp;P1;durP1;ratioP1;P2;durP2;ratioP2
70342;SDS011;57767;42.068;24.752;2023-05-07T00:00:21;6.22;;;5.15;;
70342;SDS011;57767;42.068;24.752;2023-05-07T00:01:29;7.70;;;5.70;;
70342;SDS011;57767;42.068;24.752;2023-05-07T00:02:31;7.50;;;5.20;;
70342;SDS011;57767;42.068;24.752;2023-05-07T00:03:33;6.22;;;4.97;;
70342;SDS011;57767;42.068;24.752;2023-05-07T00:04:35;13.70;;;5.95;;
70342;SDS011;57767;42.068;24.752;2023-05-07T00:05:39;9.45;;;5.60;;
70342;SDS011;57767;42.068;24.752;2023-05-07T00:06:41;7.18;;;5.15;;
70342;SDS011;57767;42.068;24.752;2023-05-07T00:07:42;6.95;;;4.97;;
70342;SDS011;57767;42.068;24.752;2023-05-07T00:08:44;9.60;;;5.15;;
70342;SDS011;57767;42.068;24.752;2023-05-07T00:09:46;7.30;;;5.18;;
70342;SDS011;57767;42.068;24.752;2023-05-07T00:10:48;5.43;;;4.90;;
70342;SDS011;57767;42.068;24.752;2023-05-07T00:11:50;7.75;;;5.35;;
70342;SDS011;57767;42.068;24.752;2023-05-07T00:12:51;9.82;;;5.43;;
70342;SDS011;57767;42.068;24.752;2023-05-07T00:13:53;6.25;;;5.20;;
70342;SDS011;57767;42.068;24.752;2023-05-07T00:14:55;7.25;;;4.97;;
70342;SDS011;57767;42.068;24.752;2023-05-07T00:15:57;7.10;;;5.10;;
70342;SDS011;57767;42.068;24.752;2023-05-07T00:16:59;5.57;;;4.97;;
70342;SDS011;57767;42.068;24.752;2023-05-07T00:18:01;6.30;;;5.20;;
70342;SDS011;57767;42.068;24.752;2023-05-07T00:19:03;8.40;;;5.40;;
70342;SDS011;57767;42.068;24.752;2023-05-07T00:20:05;6.15;;;5.07;;
70342;SDS011;57767;42.068;24.752;2023-05-07T00:21:07;6.13;;;4.70;;
70342;SDS011;57767;42.068;24.752;2023-05-07T00:22:09;7.90;;;5.45;;
70342;SDS011;57767;42.068;24.752;2023-05-07T00:23:11;5.93;;;5.22;;
70342;SDS011;57767;42.068;24.752;2023-05-07T00:24:13;6.97;;;4.82;;
70342;SDS011;57767;42.068;24.752;2023-05-07T00:25:15;6.38;;;5.07;;
70342;SDS011;57767;42.068;24.752;2023-05-07T00:26:17;9.63;;;5.13;;
70342;SDS011;57767;42.068;24.752;2023-05-07T00:27:21;7.20;;;5.57;;
70342;SDS011;57767;42.068;24.752;2023-05-07T00:28:23;7.38;;;5.93;;
70342;SDS011;57767;42.068;24.752;2023-05-07T00:29:25;6.93;;;5.55;;
70342;SDS011;57767;42.068;24.752;2023-05-07T00:30:27;7.70;;;6.25;;
70342;SDS011;57767;42.068;24.752;2023-05-07T00:31:29;7.10;;;6.20;;
70342;SDS011;57767;42.068;24.752;2023-05-07T00:32:30;6.88;;;6.03;;
70342;SDS011;57767;42.068;24.752;2023-05-07T00:33:32;8.30;;;6.53;;
70342;SDS011;57767;42.068;24.752;2023-05-07T00:34:34;7.30;;;5.82;;
70342;SDS011;57767;42.068;24.752;2023-05-07T00:35:36;8.52;;;6.32;;
70342;SDS011;57767;42.068;24.752;2023-05-07T00:36:37;7.32;;;6.18;;
70342;SDS011;57767;42.068;24.752;2023-05-07T00:37:39;10.90;;;6.32;;
70342;SDS011;57767;42.068;24.752;2023-05-07T00:38:41;11.25;;;6.50;;
70342;SDS011;57767;42.068;24.752;2023-05-07T00:39:43;6.72;;;6.00;;
70342;SDS011;57767;42.068;24.752;2023-05-07T00:40:45;8.32;;;6.10;;
70342;SDS011;57767;42.068;24.752;2023-05-07T00:41:46;9.30;;;6.53;;
70342;SDS011;57767;42.068;24.752;2023-05-07T00:42:48;8.98;;;6.13;;
70342;SDS011;57767;42.068;24.752;2023-05-07T00:43:50;8.13;;;6.30;;
70342;SDS011;57767;42.068;24.752;2023-05-07T00:44:53;9.23;;;6.47;;
70342;SDS011;57767;42.068;24.752;2023-05-07T00:45:54;7.45;;;6.60;;
70342;SDS011;57767;42.068;24.752;2023-05-07T00:46:57;10.27;;;7.32;;
70342;SDS011;57767;42.068;24.752;2023-05-07T00:48:00;8.93;;;7.00;;
70342;SDS011;57767;42.068;24.752;2023-05-07T00:49:03;9.05;;;6.22;;
70342;SDS011;57767;42.068;24.752;2023-05-07T00:50:06;7.57;;;6.05;;
70342;SDS011;57767;42.068;24.752;2023-05-07T00:51:10;8.40;;;6.35;;
70342;SDS011;57767;42.068;24.752;2023-05-07T00:52:16;10.30;;;6.22;;
70342;SDS011;57767;42.068;24.752;2023-05-07T00:53:19;8.40;;;6.05;;
70342;SDS011;57767;42.068;24.752;2023-05-07T00:54:21;8.50;;;6.10;;
70342;SDS011;57767;42.068;24.752;2023-05-07T00:55:23;7.20;;;5.95;;
70342;SDS011;57767;42.068;24.752;2023-05-07T00:56:25;7.70;;;5.72;;
70342;SDS011;57767;42.068;24.752;2023-05-07T00:57:28;7.63;;;6.10;;
70342;SDS011;57767;42.068;24.752;2023-05-07T00:58:30;8.77;;;5.70;;
70342;SDS011;57767;42.068;24.752;2023-05-07T00:59:32;8.45;;;6.18;;
70342;SDS011;57767;42.068;24.752;2023-05-07T01:00:34;7.50;;;5.35;;
70342;SDS011;57767;42.068;24.752;2023-05-07T01:01:37;8.88;;;6.60;;
70342;SDS011;57767;42.068;24.752;2023-05-07T01:02:39;10.95;;;6.40;;
70342;SDS011;57767;42.068;24.752;2023-05-07T01:03:41;9.18;;;6.00;;
70342;SDS011;57767;42.068;24.752;2023-05-07T01:04:43;7.70;;;6.53;;
70342;SDS011;57767;42.068;24.752;2023-05-07T01:05:45;8.70;;;6.18;;
70342;SDS011;57767;42.068;24.752;2023-05-07T01:06:50;9.50;;;6.10;;
70342;SDS011;57767;42.068;24.752;2023-05-07T01:07:54;6.50;;;5.20;;
70342;SDS011;57767;42.068;24.752;2023-05-07T01:08:57;8.30;;;6.22;;
70342;SDS011;57767;42.068;24.752;2023-05-07T01:09:59;6.60;;;5.80;;
70342;SDS011;57767;42.068;24.752;2023-05-07T01:11:02;7.68;;;5.32;;
70342;SDS011;57767;42.068;24.752;2023-05-07T01:12:04;7.60;;;5.18;;
70342;SDS011;57767;42.068;24.752;2023-05-07T01:13:08;5.95;;;4.70;;
70342;SDS011;57767;42.068;24.752;2023-05-07T01:14:11;6.50;;;5.45;;
70342;SDS011;57767;42.068;24.752;2023-05-07T01:15:13;6.20;;;5.10;;
70342;SDS011;57767;42.068;24.752;2023-05-07T01:16:15;6.05;;;5.32;;
70342;SDS011;57767;42.068;24.752;2023-05-07T01:17:17;7.03;;;4.82;;
70342;SDS011;57767;42.068;24.752;2023-05-07T01:18:19;5.97;;;4.38;;
70342;SDS011;57767;42.068;24.752;2023-05-07T01:19:21;8.05;;;5.20;;
70342;SDS011;57767;42.068;24.752;2023-05-07T01:20:23;7.47;;;4.70;;
70342;SDS011;57767;42.068;24.752;2023-05-07T01:21:25;6.22;;;5.15;;
70342;SDS011;57767;42.068;24.752;2023-05-07T01:22:31;5.47;;;4.70;;
70342;SDS011;57767;42.068;24.752;2023-05-07T01:23:34;8.70;;;5.10;;
70342;SDS011;57767;42.068;24.752;2023-05-07T01:24:37;6.32;;;4.45;;
70342;SDS011;57767;42.068;24.752;2023-05-07T01:25:39;5.93;;;4.88;;
70342;SDS011;57767;42.068;24.752;2023-05-07T01:26:42;7.28;;;4.65;;
70342;SDS011;57767;42.068;24.752;2023-05-07T01:27:44;5.25;;;4.65;;
70342;SDS011;57767;42.068;24.752;2023-05-07T01:28:46;9.18;;;4.95;;
70342;SDS011;57767;42.068;24.752;2023-05-07T01:29:48;6.32;;;4.82;;
70342;SDS011;57767;42.068;24.752;2023-05-07T01:30:51;7.20;;;5.32;;
70342;SDS011;57767;42.068;24.752;2023-05-07T01:31:57;5.70;;;4.88;;
70342;SDS011;57767;42.068;24.752;2023-05-07T01:33:02;9.10;;;4.95;;
70342;SDS011;57767;42.068;24.752;2023-05-07T01:34:08;8.43;;;5.45;;
70342;SDS011;57767;42.068;24.752;2023-05-07T01:35:13;6.20;;;5.20;;
70342;SDS011;57767;42.068;24.752;2023-05-07T01:36:21;5.53;;;5.03;;
70342;SDS011;57767;42.068;24.752;2023-05-07T01:37:27;7.65;;;5.18;;
70342;SDS011;57767;42.068;24.752;2023-05-07T01:38:29;6.30;;;5.05;;
70342;SDS011;57767;42.068;24.752;2023-05-07T01:39:31;7.00;;;5.10;;
70342;SDS011;57767;42.068;24.752;2023-05-07T01:40:33;6.90;;;5.03;;
70342;SDS011;57767;42.068;24.752;2023-05-07T01:41:36;5.60;;;5.10;;
70342;SDS011;57767;42.068;24.752;2023-05-07T01:42:38;8.32;;;4.93;;
70342;SDS011;57767;42.068;24.752;2023-05-07T01:43:41;5.78;;;5.18;;
70342;SDS011;57767;42.068;24.752;2023-05-07T01:44:43;5.13;;;4.65;;
70342;SDS011;57767;42.068;24.752;2023-05-07T01:45:45;5.32;;;4.82;;
70342;SDS011;57767;42.068;24.752;2023-05-07T01:46:48;6.80;;;5.07;;
70342;SDS011;57767;42.068;24.752;2023-05-07T01:47:51;5.85;;;4.75;;
70342;SDS011;57767;42.068;24.752;2023-05-07T01:48:54;5.43;;;4.90;;
70342;SDS011;57767;42.068;24.752;2023-05-07T01:49:56;9.20;;;5.15;;
70342;SDS011;57767;42.068;24.752;2023-05-07T01:50:59;6.80;;;5.43;;
70342;SDS011;57767;42.068;24.752;2023-05-07T01:52:02;5.70;;;4.70;;
70342;SDS011;57767;42.068;24.752;2023-05-07T01:53:04;6.45;;;5.40;;
70342;SDS011;57767;42.068;24.752;2023-05-07T01:54:05;5.88;;;4.78;;
70342;SDS011;57767;42.068;24.752;2023-05-07T01:55:07;5.15;;;4.72;;
70342;SDS011;57767;42.068;24.752;2023-05-07T01:56:09;8.15;;;5.25;;
70342;SDS011;57767;42.068;24.752;2023-05-07T01:57:11;12.35;;;5.10;;
70342;SDS011;57767;42.068;24.752;2023-05-07T01:58:13;5.65;;;5.00;;
70342;SDS011;57767;42.068;24.752;2023-05-07T01:59:15;6.93;;;5.25;;
70342;SDS011;57767;42.068;24.752;2023-05-07T02:00:17;6.22;;;5.47;;
70342;SDS011;57767;42.068;24.752;2023-05-07T02:01:20;6.22;;;5.13;;
70342;SDS011;57767;42.068;24.752;2023-05-07T02:02:22;18.40;;;5.78;;
70342;SDS011;57767;42.068;24.752;2023-05-07T02:03:24;6.30;;;5.07;;
70342;SDS011;57767;42.068;24.752;2023-05-07T02:04:26;7.30;;;5.60;;
70342;SDS011;57767;42.068;24.752;2023-05-07T02:05:27;7.68;;;5.63;;
70342;SDS011;57767;42.068;24.752;2023-05-07T02:06:29;7.10;;;5.80;;
70342;SDS011;57767;42.068;24.752;2023-05-07T02:07:32;7.28;;;6.28;;
70342;SDS011;57767;42.068;24.752;2023-05-07T02:08:34;8.15;;;6.03;;
70342;SDS011;57767;42.068;24.752;2023-05-07T02:09:36;7.65;;;5.57;;
70342;SDS011;57767;42.068;24.752;2023-05-07T02:10:37;6.82;;;5.75;;
70342;SDS011;57767;42.068;24.752;2023-05-07T02:11:39;7.75;;;6.20;;
70342;SDS011;57767;42.068;24.752;2023-05-07T02:12:41;7.97;;;5.97;;
70342;SDS011;57767;42.068;24.752;2023-05-07T02:13:44;11.43;;;6.30;;
70342;SDS011;57767;42.068;24.752;2023-05-07T02:14:46;8.00;;;6.38;;
70342;SDS011;57767;42.068;24.752;2023-05-07T02:15:48;7.45;;;5.93;;
70342;SDS011;57767;42.068;24.752;2023-05-07T02:16:51;8.77;;;5.47;;
70342;SDS011;57767;42.068;24.752;2023-05-07T02:19:01;8.55;;;5.53;;
70342;SDS011;57767;42.068;24.752;2023-05-07T02:20:03;7.28;;;5.97;;
70342;SDS011;57767;42.068;24.752;2023-05-07T02:21:05;7.72;;;5.80;;
70342;SDS011;57767;42.068;24.752;2023-05-07T02:22:07;8.52;;;5.55;;
70342;SDS011;57767;42.068;24.752;2023-05-07T02:23:09;10.20;;;5.10;;
70342;SDS011;57767;42.068;24.752;2023-05-07T02:24:11;9.15;;;5.95;;
70342;SDS011;57767;42.068;24.752;2023-05-07T02:25:12;6.78;;;5.57;;
70342;SDS011;57767;42.068;24.752;2023-05-07T02:26:14;8.25;;;6.30;;
70342;SDS011;57767;42.068;24.752;2023-05-07T02:27:16;12.73;;;6.70;;
70342;SDS011;57767;42.068;24.752;2023-05-07T02:28:17;9.27;;;6.72;;
70342;SDS011;57767;42.068;24.752;2023-05-07T02:29:19;9.95;;;6.25;;
70342;SDS011;57767;42.068;24.752;2023-05-07T02:30:21;9.20;;;6.07;;
70342;SDS011;57767;42.068;24.752;2023-05-07T02:31:23;9.05;;;6.70;;
70342;SDS011;57767;42.068;24.752;2023-05-07T02:32:25;9.38;;;6.45;;
70342;SDS011;57767;42.068;24.752;2023-05-07T02:33:27;9.13;;;6.00;;
70342;SDS011;57767;42.068;24.752;2023-05-07T02:34:28;8.05;;;6.40;;
70342;SDS011;57767;42.068;24.752;2023-05-07T02:35:30;10.75;;;6.93;;
70342;SDS011;57767;42.068;24.752;2023-05-07T02:36:32;7.43;;;5.72;;
70342;SDS011;57767;42.068;24.752;2023-05-07T02:37:34;10.20;;;6.68;;
70342;SDS011;57767;42.068;24.752;2023-05-07T02:38:36;11.15;;;7.45;;
70342;SDS011;57767;42.068;24.752;2023-05-07T02:39:38;9.68;;;7.10;;
70342;SDS011;57767;42.068;24.752;2023-05-07T02:40:39;6.85;;;6.20;;
70342;SDS011;57767;42.068;24.752;2023-05-07T02:41:41;9.52;;;6.70;;
70342;SDS011;57767;42.068;24.752;2023-05-07T02:42:43;8.52;;;6.88;;
70342;SDS011;57767;42.068;24.752;2023-05-07T02:43:45;10.70;;;7.00;;
70342;SDS011;57767;42.068;24.752;2023-05-07T02:44:46;9.65;;;6.90;;
70342;SDS011;57767;42.068;24.752;2023-05-07T02:45:48;9.32;;;6.95;;
70342;SDS011;57767;42.068;24.752;2023-05-07T02:46:50;9.25;;;7.45;;
70342;SDS011;57767;42.068;24.752;2023-05-07T02:47:52;10.75;;;6.95;;
70342;SDS011;57767;42.068;24.752;2023-05-07T02:48:54;9.38;;;7.68;;
70342;SDS011;57767;42.068;24.752;2023-05-07T02:49:55;10.00;;;7.15;;
70342;SDS011;57767;42.068;24.752;2023-05-07T02:50:57;8.73;;;6.90;;
70342;SDS011;57767;42.068;24.752;2023-05-07T02:52:00;9.05;;;6.63;;
70342;SDS011;57767;42.068;24.752;2023-05-07T02:53:01;10.13;;;7.20;;
70342;SDS011;57767;42.068;24.752;2023-05-07T02:54:03;10.15;;;6.65;;
70342;SDS011;57767;42.068;24.752;2023-05-07T02:55:05;8.27;;;7.07;;
70342;SDS011;57767;42.068;24.752;2023-05-07T02:56:08;10.45;;;7.20;;
70342;SDS011;57767;42.068;24.752;2023-05-07T02:57:09;7.75;;;6.72;;
70342;SDS011;57767;42.068;24.752;2023-05-07T02:58:11;8.68;;;6.90;;
70342;SDS011;57767;42.068;24.752;2023-05-07T02:59:13;12.77;;;7.63;;
70342;SDS011;57767;42.068;24.752;2023-05-07T03:00:16;9.10;;;7.72;;
70342;SDS011;57767;42.068;24.752;2023-05-07T03:01:19;11.75;;;7.47;;
70342;SDS011;57767;42.068;24.752;2023-05-07T03:02:22;9.18;;;7.70;;
70342;SDS011;57767;42.068;24.752;2023-05-07T03:03:24;9.20;;;7.68;;
70342;SDS011;57767;42.068;24.752;2023-05-07T03:04:25;7.78;;;7.07;;
70342;SDS011;57767;42.068;24.752;2023-05-07T03:05:27;9.88;;;7.30;;
70342;SDS011;57767;42.068;24.752;2023-05-07T03:06:29;9.88;;;7.75;;
70342;SDS011;57767;42.068;24.752;2023-05-07T03:07:31;11.70;;;7.63;;
70342;SDS011;57767;42.068;24.752;2023-05-07T03:08:32;11.10;;;8.30;;
70342;SDS011;57767;42.068;24.752;2023-05-07T03:09:34;11.00;;;7.65;;
70342;SDS011;57767;42.068;24.752;2023-05-07T03:10:36;9.40;;;7.22;;
70342;SDS011;57767;42.068;24.752;2023-05-07T03:11:38;8.50;;;7.38;;
70342;SDS011;57767;42.068;24.752;2023-05-07T03:12:40;10.25;;;7.45;;
70342;SDS011;57767;42.068;24.752;2023-05-07T03:13:41;10.43;;;7.40;;
70342;SDS011;57767;42.068;24.752;2023-05-07T03:14:43;9.70;;;7.32;;
70342;SDS011;57767;42.068;24.752;2023-05-07T03:15:45;8.07;;;6.95;;
70342;SDS011;57767;42.068;24.752;2023-05-07T03:16:47;10.32;;;8.02;;
70342;SDS011;57767;42.068;24.752;2023-05-07T03:25:59;8.75;;;7.05;;
70342;SDS011;57767;42.068;24.752;2023-05-07T03:27:01;9.57;;;7.68;;
70342;SDS011;57767;42.068;24.752;2023-05-07T03:28:03;10.13;;;7.60;;
70342;SDS011;57767;42.068;24.752;2023-05-07T03:29:04;13.07;;;7.38;;
70342;SDS011;57767;42.068;24.752;2023-05-07T03:30:07;7.50;;;6.75;;
70342;SDS011;57767;42.068;24.752;2023-05-07T03:31:10;11.20;;;7.55;;
70342;SDS011;57767;42.068;24.752;2023-05-07T03:32:12;9.43;;;7.30;;
70342;SDS011;57767;42.068;24.752;2023-05-07T03:33:14;8.18;;;6.93;;
70342;SDS011;57767;42.068;24.752;2023-05-07T03:34:15;8.73;;;7.07;;
70342;SDS011;57767;42.068;24.752;2023-05-07T03:35:18;9.45;;;7.70;;
70342;SDS011;57767;42.068;24.752;2023-05-07T03:36:20;12.10;;;7.45;;
70342;SDS011;57767;42.068;24.752;2023-05-07T03:37:22;10.38;;;7.68;;
70342;SDS011;57767;42.068;24.752;2023-05-07T03:38:24;8.82;;;7.28;;
70342;SDS011;57767;42.068;24.752;2023-05-07T03:39:25;8.40;;;6.70;;
70342;SDS011;57767;42.068;24.752;2023-05-07T03:40:27;11.73;;;6.60;;
70342;SDS011;57767;42.068;24.752;2023-05-07T03:41:30;10.25;;;7.15;;
70342;SDS011;57767;42.068;24.752;2023-05-07T03:42:31;10.05;;;7.55;;
70342;SDS011;57767;42.068;24.752;2023-05-07T03:43:33;8.68;;;7.00;;
70342;SDS011;57767;42.068;24.752;2023-05-07T03:44:35;9.30;;;6.85;;
70342;SDS011;57767;42.068;24.752;2023-05-07T03:45:37;8.35;;;6.40;;
70342;SDS011;57767;42.068;24.752;2023-05-07T03:46:39;6.70;;;5.88;;
70342;SDS011;57767;42.068;24.752;2023-05-07T03:47:41;10.98;;;7.32;;
70342;SDS011;57767;42.068;24.752;2023-05-07T03:48:43;11.68;;;7.57;;
70342;SDS011;57767;42.068;24.752;2023-05-07T03:49:44;12.02;;;7.32;;
70342;SDS011;57767;42.068;24.752;2023-05-07T03:50:46;12.63;;;9.88;;
70342;SDS011;57767;42.068;24.752;2023-05-07T03:51:49;13.05;;;8.77;;
70342;SDS011;57767;42.068;24.752;2023-05-07T03:52:50;11.43;;;8.50;;
70342;SDS011;57767;42.068;24.752;2023-05-07T03:53:52;11.85;;;9.20;;
70342;SDS011;57767;42.068;24.752;2023-05-07T03:54:54;10.98;;;7.60;;
70342;SDS011;57767;42.068;24.752;2023-05-07T03:55:56;11.32;;;7.50;;
70342;SDS011;57767;42.068;24.752;2023-05-07T03:56:57;9.48;;;7.35;;
70342;SDS011;57767;42.068;24.752;2023-05-07T03:57:59;9.07;;;7.13;;
70342;SDS011;57767;42.068;24.752;2023-05-07T03:59:01;7.60;;;6.50;;
70342;SDS011;57767;42.068;24.752;2023-05-07T04:00:03;7.43;;;6.30;;
70342;SDS011;57767;42.068;24.752;2023-05-07T04:01:05;9.05;;;6.05;;
70342;SDS011;57767;42.068;24.752;2023-05-07T04:02:08;8.18;;;5.75;;
70342;SDS011;57767;42.068;24.752;2023-05-07T04:03:10;6.28;;;5.63;;
70342;SDS011;57767;42.068;24.752;2023-05-07T04:04:12;8.82;;;6.03;;
70342;SDS011;57767;42.068;24.752;2023-05-07T04:05:14;7.03;;;5.38;;
70342;SDS011;57767;42.068;24.752;2023-05-07T04:06:16;6.38;;;5.38;;
70342;SDS011;57767;42.068;24.752;2023-05-07T04:07:22;6.53;;;5.93;;
70342;SDS011;57767;42.068;24.752;2023-05-07T04:08:23;6.78;;;6.07;;
70342;SDS011;57767;42.068;24.752;2023-05-07T04:09:25;10.18;;;6.78;;
70342;SDS011;57767;42.068;24.752;2023-05-07T04:10:27;10.40;;;6.60;;
70342;SDS011;57767;42.068;24.752;2023-05-07T04:11:30;10.18;;;7.22;;
70342;SDS011;57767;42.068;24.752;2023-05-07T04:12:32;9.10;;;6.47;;
70342;SDS011;57767;42.068;24.752;2023-05-07T04:13:34;8.82;;;5.88;;
70342;SDS011;57767;42.068;24.752;2023-05-07T04:14:36;6.97;;;5.90;;
70342;SDS011;57767;42.068;24.752;2023-05-07T04:15:38;8.15;;;5.55;;
70342;SDS011;57767;42.068;24.752;2023-05-07T04:16:40;10.18;;;5.80;;
70342;SDS011;57767;42.068;24.752;2023-05-07T04:17:42;7.35;;;5.07;;
70342;SDS011;57767;42.068;24.752;2023-05-07T04:18:44;5.95;;;5.15;;
70342;SDS011;57767;42.068;24.752;2023-05-07T04:19:45;6.25;;;5.60;;
70342;SDS011;57767;42.068;24.752;2023-05-07T04:20:48;6.70;;;5.30;;
70342;SDS011;57767;42.068;24.752;2023-05-07T04:21:53;5.80;;;5.00;;
70342;SDS011;57767;42.068;24.752;2023-05-07T04:22:55;7.55;;;4.95;;
70342;SDS011;57767;42.068;24.752;2023-05-07T04:23:57;6.22;;;4.65;;
70342;SDS011;57767;42.068;24.752;2023-05-07T04:24:58;5.85;;;4.50;;
70342;SDS011;57767;42.068;24.752;2023-05-07T04:26:01;7.45;;;5.82;;
70342;SDS011;57767;42.068;24.752;2023-05-07T04:27:04;5.57;;;4.90;;
70342;SDS011;57767;42.068;24.752;2023-05-07T04:28:07;6.78;;;4.88;;
70342;SDS011;57767;42.068;24.752;2023-05-07T04:29:09;13.20;;;4.80;;
70342;SDS011;57767;42.068;24.752;2023-05-07T04:30:11;6.78;;;4.28;;
70342;SDS011;57767;42.068;24.752;2023-05-07T04:31:14;6.05;;;4.82;;
70342;SDS011;57767;42.068;24.752;2023-05-07T04:32:16;6.72;;;4.53;;
70342;SDS011;57767;42.068;24.752;2023-05-07T04:33:18;7.32;;;4.47;;
70342;SDS011;57767;42.068;24.752;2023-05-07T04:34:20;4.85;;;4.43;;
70342;SDS011;57767;42.068;24.752;2023-05-07T04:35:22;4.72;;;4.20;;
70342;SDS011;57767;42.068;24.752;2023-05-07T04:36:24;5.07;;;4.60;;
70342;SDS011;57767;42.068;24.752;2023-05-07T04:37:29;9.15;;;4.45;;
70342;SDS011;57767;42.068;24.752;2023-05-07T04:38:32;7.35;;;4.43;;
70342;SDS011;57767;42.068;24.752;2023-05-07T04:39:34;5.75;;;4.10;;
70342;SDS011;57767;42.068;24.752;2023-05-07T04:40:36;4.88;;;4.40;;
70342;SDS011;57767;42.068;24.752;2023-05-07T04:41:38;6.50;;;4.65;;
70342;SDS011;57767;42.068;24.752;2023-05-07T04:42:40;5.10;;;4.35;;
70342;SDS011;57767;42.068;24.752;2023-05-07T04:43:42;4.65;;;4.25;;
70342;SDS011;57767;42.068;24.752;2023-05-07T04:44:44;5.72;;;4.50;;
70342;SDS011;57767;42.068;24.752;2023-05-07T04:45:46;5.38;;;4.38;;
70342;SDS011;57767;42.068;24.752;2023-05-07T04:46:48;6.63;;;4.40;;
70342;SDS011;57767;42.068;24.752;2023-05-07T04:47:50;5.10;;;4.60;;
70342;SDS011;57767;42.068;24.752;2023-05-07T04:48:52;5.85;;;4.75;;
70342;SDS011;57767;42.068;24.752;2023-05-07T04:49:54;6.10;;;4.43;;
70342;SDS011;57767;42.068;24.752;2023-05-07T04:50:55;7.00;;;4.90;;
70342;SDS011;57767;42.068;24.752;2023-05-07T04:51:57;5.03;;;4.32;;
70342;SDS011;57767;42.068;24.752;2023-05-07T04:52:59;5.75;;;4.45;;
70342;SDS011;57767;42.068;24.752;2023-05-07T04:54:01;8.45;;;4.65;;
70342;SDS011;57767;42.068;24.752;2023-05-07T04:55:03;6.68;;;4.40;;
70342;SDS011;57767;42.068;24.752;2023-05-07T04:56:04;8.90;;;5.15;;
70342;SDS011;57767;42.068;24.752;2023-05-07T04:57:06;8.05;;;5.55;;
70342;SDS011;57767;42.068;24.752;2023-05-07T04:58:08;7.55;;;4.93;;
70342;SDS011;57767;42.068;24.752;2023-05-07T04:59:10;6.55;;;5.22;;
70342;SDS011;57767;42.068;24.752;2023-05-07T05:00:12;8.73;;;5.20;;
70342;SDS011;57767;42.068;24.752;2023-05-07T05:01:17;5.07;;;4.57;;
70342;SDS011;57767;42.068;24.752;2023-05-07T05:02:19;6.57;;;5.28;;
70342;SDS011;57767;42.068;24.752;2023-05-07T05:03:21;6.40;;;4.88;;
70342;SDS011;57767;42.068;24.752;2023-05-07T05:04:23;6.38;;;5.18;;
70342;SDS011;57767;42.068;24.752;2023-05-07T05:05:25;8.07;;;5.25;;
70342;SDS011;57767;42.068;24.752;2023-05-07T05:06:27;7.38;;;5.40;;
70342;SDS011;57767;42.068;24.752;2023-05-07T05:07:28;7.75;;;5.25;;
70342;SDS011;57767;42.068;24.752;2023-05-07T05:08:30;7.40;;;5.20;;
70342;SDS011;57767;42.068;24.752;2023-05-07T05:09:32;7.70;;;5.38;;
70342;SDS011;57767;42.068;24.752;2023-05-07T05:10:34;7.53;;;5.35;;
70342;SDS011;57767;42.068;24.752;2023-05-07T05:11:35;9.35;;;5.75;;
70342;SDS011;57767;42.068;24.752;2023-05-07T05:12:37;9.32;;;5.18;;
70342;SDS011;57767;42.068;24.752;2023-05-07T05:13:39;8.98;;;5.25;;
70342;SDS011;57767;42.068;24.752;2023-05-07T05:14:41;5.90;;;5.20;;
70342;SDS011;57767;42.068;24.752;2023-05-07T05:15:44;8.07;;;5.90;;
70342;SDS011;57767;42.068;24.752;2023-05-07T05:16:47;7.30;;;5.18;;
70342;SDS011;57767;42.068;24.752;2023-05-07T05:17:48;8.27;;;5.47;;
70342;SDS011;57767;42.068;24.752;2023-05-07T05:18:50;7.30;;;5.47;;
70342;SDS011;57767;42.068;24.752;2023-05-07T05:19:53;7.28;;;5.10;;
70342;SDS011;57767;42.068;24.752;2023-05-07T05:20:55;9.77;;;5.45;;
70342;SDS011;57767;42.068;24.752;2023-05-07T05:21:56;9.68;;;5.40;;
70342;SDS011;57767;42.068;24.752;2023-05-07T05:22:58;7.18;;;6.10;;
70342;SDS011;57767;42.068;24.752;2023-05-07T05:24:00;8.52;;;5.43;;
70342;SDS011;57767;42.068;24.752;2023-05-07T05:25:02;12.73;;;5.72;;
70342;SDS011;57767;42.068;24.752;2023-05-07T05:26:04;9.18;;;5.50;;
70342;SDS011;57767;42.068;24.752;2023-05-07T05:27:05;8.73;;;5.68;;
70342;SDS011;57767;42.068;24.752;2023-05-07T05:28:07;19.60;;;6.95;;
70342;SDS011;57767;42.068;24.752;2023-05-07T05:29:09;13.43;;;6.35;;
70342;SDS011;57767;42.068;24.752;2023-05-07T05:30:11;12.57;;;6.47;;
70342;SDS011;57767;42.068;24.752;2023-05-07T05:31:14;11.55;;;5.38;;
70342;SDS011;57767;42.068;24.752;2023-05-07T05:32:15;13.52;;;5.78;;
70342;SDS011;57767;42.068;24.752;2023-05-07T05:33:17;14.02;;;5.75;;
70342;SDS011;57767;42.068;24.752;2023-05-07T05:34:19;22.77;;;6.80;;
70342;SDS011;57767;42.068;24.752;2023-05-07T05:35:21;11.60;;;5.95;;
70342;SDS011;57767;42.068;24.752;2023-05-07T05:36:22;8.80;;;4.88;;
70342;SDS011;57767;42.068;24.752;2023-05-07T05:37:24;33.75;;;8.07;;
70342;SDS011;57767;42.068;24.752;2023-05-07T05:38:26;9.32;;;5.25;;
70342;SDS011;57767;42.068;24.752;2023-05-07T05:39:28;7.05;;;5.40;;
70342;SDS011;57767;42.068;24.752;2023-05-07T05:40:32;9.13;;;5.18;;
70342;SDS011;57767;42.068;24.752;2023-05-07T05:41:34;5.60;;;4.95;;
70342;SDS011;57767;42.068;24.752;2023-05-07T05:42:36;7.38;;;4.88;;
70342;SDS011;57767;42.068;24.752;2023-05-07T05:43:38;6.80;;;5.40;;
70342;SDS011;57767;42.068;24.752;2023-05-07T05:44:39;9.65;;;5.13;;
70342;SDS011;57767;42.068;24.752;2023-05-07T05:45:41;5.78;;;5.13;;
70342;SDS011;57767;42.068;24.752;2023-05-07T05:46:43;7.32;;;5.03;;
70342;SDS011;57767;42.068;24.752;2023-05-07T05:47:45;7.90;;;4.80;;
70342;SDS011;57767;42.068;24.752;2023-05-07T05:48:47;6.95;;;5.22;;
70342;SDS011;57767;42.068;24.752;2023-05-07T05:49:48;6.05;;;5.05;;
70342;SDS011;57767;42.068;24.752;2023-05-07T05:50:50;7.25;;;4.90;;
70342;SDS011;57767;42.068;24.752;2023-05-07T05:51:52;6.97;;;4.82;;
70342;SDS011;57767;42.068;24.752;2023-05-07T05:52:54;6.40;;;4.78;;
70342;SDS011;57767;42.068;24.752;2023-05-07T05:53:56;11.30;;;4.88;;
70342;SDS011;57767;42.068;24.752;2023-05-07T05:54:57;5.55;;;4.43;;
70342;SDS011;57767;42.068;24.752;2023-05-07T05:55:59;6.32;;;5.18;;
70342;SDS011;57767;42.068;24.752;2023-05-07T05:57:01;6.70;;;4.30;;
70342;SDS011;57767;42.068;24.752;2023-05-07T05:58:05;9.10;;;4.72;;
70342;SDS011;57767;42.068;24.752;2023-05-07T05:59:07;9.93;;;4.03;;
70342;SDS011;57767;42.068;24.752;2023-05-07T06:00:09;7.20;;;4.35;;
70342;SDS011;57767;42.068;24.752;2023-05-07T06:01:11;7.35;;;4.43;;
70342;SDS011;57767;42.068;24.752;2023-05-07T06:02:13;5.93;;;4.22;;
70342;SDS011;57767;42.068;24.752;2023-05-07T06:03:15;6.90;;;4.57;;
70342;SDS011;57767;42.068;24.752;2023-05-07T06:04:17;8.10;;;4.43;;
70342;SDS011;57767;42.068;24.752;2023-05-07T06:05:18;7.03;;;4.55;;
70342;SDS011;57767;42.068;24.752;2023-05-07T06:06:20;6.10;;;5.18;;
70342;SDS011;57767;42.068;24.752;2023-05-07T06:07:22;7.93;;;5.35;;
70342;SDS011;57767;42.068;24.752;2023-05-07T06:08:24;5.97;;;4.65;;
70342;SDS011;57767;42.068;24.752;2023-05-07T06:09:26;5.95;;;4.30;;
70342;SDS011;57767;42.068;24.752;2023-05-07T06:10:27;5.60;;;4.50;;
70342;SDS011;57767;42.068;24.752;2023-05-07T06:11:29;5.03;;;4.47;;
70342;SDS011;57767;42.068;24.752;2023-05-07T06:12:33;5.72;;;4.32;;
70342;SDS011;57767;42.068;24.752;2023-05-07T06:13:35;5.80;;;4.30;;
70342;SDS011;57767;42.068;24.752;2023-05-07T06:14:36;5.78;;;4.60;;
70342;SDS011;57767;42.068;24.752;2023-05-07T06:15:38;5.63;;;4.60;;
70342;SDS011;57767;42.068;24.752;2023-05-07T06:16:40;6.68;;;4.38;;
70342;SDS011;57767;42.068;24.752;2023-05-07T06:17:42;5.32;;;4.38;;